sensor_id;sensor_type;location;lat;lon;timestamp;P1;durP1;ratioP1;P2;durP2;ratioP2
50337;SDS011;46221;51.178;5.900;2023-09-19T00:00:35;4.28;;;1.23;;
50337;SDS011;46221;51.178;5.900;2023-09-19T00:03:02;4.35;;;1.55;;
50337;SDS011;46221;51.178;5.900;2023-09-19T00:05:29;3.90;;;1.25;;
50337;SDS011;46221;51.178;5.900;2023-09-19T00:07:56;4.50;;;1.50;;
50337;SDS011;46221;51.178;5.900;2023-09-19T00:10:25;4.65;;;1.33;;
50337;SDS011;46221;51.178;5.900;2023-09-19T00:12:53;3.22;;;1.13;;
50337;SDS011;46221;51.178;5.900;2023-09-19T00:15:22;4.70;;;1.13;;
50337;SDS011;46221;51.178;5.900;2023-09-19T00:17:49;3.95;;;1.42;;
50337;SDS011;46221;51.178;5.900;2023-09-19T00:20:18;4.30;;;1.33;;
50337;SDS011;46221;51.178;5.900;2023-09-19T00:22:44;4.03;;;1.40;;
50337;SDS011;46221;51.178;5.900;2023-09-19T00:25:11;5.13;;;1.35;;
50337;SDS011;46221;51.178;5.900;2023-09-19T00:27:38;4.95;;;1.30;;
50337;SDS011;46221;51.178;5.900;2023-09-19T00:30:08;6.10;;;1.60;;
50337;SDS011;46221;51.178;5.900;2023-09-19T00:32:40;3.90;;;1.20;;
50337;SDS011;46221;51.178;5.900;2023-09-19T00:35:07;5.68;;;1.90;;
50337;SDS011;46221;51.178;5.900;2023-09-19T00:37:37;3.70;;;1.30;;
50337;SDS011;46221;51.178;5.900;2023-09-19T00:40:03;4.10;;;1.40;;
50337;SDS011;46221;51.178;5.900;2023-09-19T00:42:31;4.18;;;1.08;;
50337;SDS011;46221;51.178;5.900;2023-09-19T00:44:59;3.60;;;1.20;;
50337;SDS011;46221;51.178;5.900;2023-09-19T00:47:29;4.05;;;1.58;;
50337;SDS011;46221;51.178;5.900;2023-09-19T00:49:56;3.90;;;1.40;;
50337;SDS011;46221;51.178;5.900;2023-09-19T00:52:23;5.15;;;1.77;;
50337;SDS011;46221;51.178;5.900;2023-09-19T00:54:49;4.32;;;2.00;;
50337;SDS011;46221;51.178;5.900;2023-09-19T00:57:16;4.97;;;1.40;;
50337;SDS011;46221;51.178;5.900;2023-09-19T00:59:45;4.38;;;1.23;;
50337;SDS011;46221;51.178;5.900;2023-09-19T01:02:14;2.63;;;1.20;;
50337;SDS011;46221;51.178;5.900;2023-09-19T01:04:41;4.50;;;1.20;;
50337;SDS011;46221;51.178;5.900;2023-09-19T01:07:08;4.00;;;1.30;;
50337;SDS011;46221;51.178;5.900;2023-09-19T01:09:35;5.28;;;1.42;;
50337;SDS011;46221;51.178;5.900;2023-09-19T01:12:02;4.80;;;1.45;;
50337;SDS011;46221;51.178;5.900;2023-09-19T01:14:37;4.28;;;1.33;;
50337;SDS011;46221;51.178;5.900;2023-09-19T01:17:09;4.10;;;1.60;;
50337;SDS011;46221;51.178;5.900;2023-09-19T01:19:53;3.03;;;1.17;;
50337;SDS011;46221;51.178;5.900;2023-09-19T01:22:31;4.00;;;1.30;;
50337;SDS011;46221;51.178;5.900;2023-09-19T01:30:17;3.70;;;1.33;;
50337;SDS011;46221;51.178;5.900;2023-09-19T01:32:44;5.22;;;1.67;;
50337;SDS011;46221;51.178;5.900;2023-09-19T01:35:12;3.83;;;1.75;;
50337;SDS011;46221;51.178;5.900;2023-09-19T01:37:39;3.65;;;1.50;;
50337;SDS011;46221;51.178;5.900;2023-09-19T01:40:10;3.47;;;1.13;;
50337;SDS011;46221;51.178;5.900;2023-09-19T01:42:41;3.38;;;1.10;;
50337;SDS011;46221;51.178;5.900;2023-09-19T01:45:13;6.88;;;1.80;;
50337;SDS011;46221;51.178;5.900;2023-09-19T01:47:46;3.08;;;1.35;;
50337;SDS011;46221;51.178;5.900;2023-09-19T01:50:30;4.00;;;1.35;;
50337;SDS011;46221;51.178;5.900;2023-09-19T01:53:05;2.97;;;1.27;;
50337;SDS011;46221;51.178;5.900;2023-09-19T01:55:34;5.00;;;1.50;;
50337;SDS011;46221;51.178;5.900;2023-09-19T01:58:14;5.20;;;1.52;;
50337;SDS011;46221;51.178;5.900;2023-09-19T02:00:43;5.13;;;1.40;;
50337;SDS011;46221;51.178;5.900;2023-09-19T02:03:11;4.00;;;1.10;;
50337;SDS011;46221;51.178;5.900;2023-09-19T02:05:37;4.97;;;1.58;;
50337;SDS011;46221;51.178;5.900;2023-09-19T02:08:04;4.25;;;1.20;;
50337;SDS011;46221;51.178;5.900;2023-09-19T02:10:30;4.32;;;1.38;;
50337;SDS011;46221;51.178;5.900;2023-09-19T02:12:57;5.40;;;1.67;;
50337;SDS011;46221;51.178;5.900;2023-09-19T02:15:23;3.35;;;1.40;;
50337;SDS011;46221;51.178;5.900;2023-09-19T02:17:50;3.22;;;1.20;;
50337;SDS011;46221;51.178;5.900;2023-09-19T02:20:16;2.88;;;0.98;;
50337;SDS011;46221;51.178;5.900;2023-09-19T02:22:43;4.47;;;1.13;;
50337;SDS011;46221;51.178;5.900;2023-09-19T02:25:10;5.80;;;1.20;;
50337;SDS011;46221;51.178;5.900;2023-09-19T02:27:37;4.15;;;1.20;;
50337;SDS011;46221;51.178;5.900;2023-09-19T02:30:04;4.30;;;1.35;;
50337;SDS011;46221;51.178;5.900;2023-09-19T02:32:32;3.20;;;1.25;;
50337;SDS011;46221;51.178;5.900;2023-09-19T02:35:02;5.40;;;1.65;;
50337;SDS011;46221;51.178;5.900;2023-09-19T02:37:28;4.35;;;1.25;;
50337;SDS011;46221;51.178;5.900;2023-09-19T02:39:55;4.90;;;1.52;;
50337;SDS011;46221;51.178;5.900;2023-09-19T02:42:22;4.93;;;1.40;;
50337;SDS011;46221;51.178;5.900;2023-09-19T02:44:48;2.92;;;1.30;;
50337;SDS011;46221;51.178;5.900;2023-09-19T02:47:15;3.30;;;1.25;;
50337;SDS011;46221;51.178;5.900;2023-09-19T02:49:43;4.55;;;1.15;;
50337;SDS011;46221;51.178;5.900;2023-09-19T02:52:09;4.75;;;1.20;;
50337;SDS011;46221;51.178;5.900;2023-09-19T02:54:37;3.17;;;1.17;;
50337;SDS011;46221;51.178;5.900;2023-09-19T02:57:03;5.07;;;1.70;;
50337;SDS011;46221;51.178;5.900;2023-09-19T02:59:32;3.53;;;1.40;;
50337;SDS011;46221;51.178;5.900;2023-09-19T03:01:59;5.35;;;1.38;;
50337;SDS011;46221;51.178;5.900;2023-09-19T03:04:26;6.15;;;1.35;;
50337;SDS011;46221;51.178;5.900;2023-09-19T03:06:54;4.53;;;1.75;;
50337;SDS011;46221;51.178;5.900;2023-09-19T03:09:27;3.35;;;1.20;;
50337;SDS011;46221;51.178;5.900;2023-09-19T03:11:54;3.33;;;0.90;;
50337;SDS011;46221;51.178;5.900;2023-09-19T03:14:20;4.22;;;1.40;;
50337;SDS011;46221;51.178;5.900;2023-09-19T03:16:47;4.18;;;1.10;;
50337;SDS011;46221;51.178;5.900;2023-09-19T03:19:13;4.60;;;1.40;;
50337;SDS011;46221;51.178;5.900;2023-09-19T03:21:41;4.30;;;1.30;;
50337;SDS011;46221;51.178;5.900;2023-09-19T03:24:08;3.97;;;1.33;;
50337;SDS011;46221;51.178;5.900;2023-09-19T03:26:34;3.42;;;1.38;;
50337;SDS011;46221;51.178;5.900;2023-09-19T03:29:03;4.70;;;1.25;;
50337;SDS011;46221;51.178;5.900;2023-09-19T03:31:32;5.20;;;1.65;;
50337;SDS011;46221;51.178;5.900;2023-09-19T03:33:59;3.45;;;1.27;;
50337;SDS011;46221;51.178;5.900;2023-09-19T03:36:25;3.38;;;1.10;;
50337;SDS011;46221;51.178;5.900;2023-09-19T03:38:54;4.85;;;1.50;;
50337;SDS011;46221;51.178;5.900;2023-09-19T03:41:20;4.97;;;1.90;;
50337;SDS011;46221;51.178;5.900;2023-09-19T03:43:46;4.25;;;1.33;;
50337;SDS011;46221;51.178;5.900;2023-09-19T03:46:13;4.35;;;1.40;;
50337;SDS011;46221;51.178;5.900;2023-09-19T03:48:41;5.53;;;1.38;;
50337;SDS011;46221;51.178;5.900;2023-09-19T03:51:08;2.78;;;1.02;;
50337;SDS011;46221;51.178;5.900;2023-09-19T03:53:35;3.65;;;1.40;;
50337;SDS011;46221;51.178;5.900;2023-09-19T03:56:01;5.28;;;1.67;;
50337;SDS011;46221;51.178;5.900;2023-09-19T03:58:28;5.75;;;1.80;;
50337;SDS011;46221;51.178;5.900;2023-09-19T04:00:55;4.60;;;1.50;;
50337;SDS011;46221;51.178;5.900;2023-09-19T04:03:22;5.55;;;1.17;;
50337;SDS011;46221;51.178;5.900;2023-09-19T04:05:48;3.53;;;1.10;;
50337;SDS011;46221;51.178;5.900;2023-09-19T04:08:15;4.43;;;1.38;;
50337;SDS011;46221;51.178;5.900;2023-09-19T04:10:42;4.00;;;1.40;;
50337;SDS011;46221;51.178;5.900;2023-09-19T04:13:08;6.78;;;1.38;;
50337;SDS011;46221;51.178;5.900;2023-09-19T04:15:35;4.07;;;1.40;;
50337;SDS011;46221;51.178;5.900;2023-09-19T04:18:01;3.13;;;1.40;;
50337;SDS011;46221;51.178;5.900;2023-09-19T04:20:29;4.07;;;1.52;;
50337;SDS011;46221;51.178;5.900;2023-09-19T04:22:55;4.28;;;1.48;;
50337;SDS011;46221;51.178;5.900;2023-09-19T04:25:22;3.95;;;1.38;;
50337;SDS011;46221;51.178;5.900;2023-09-19T04:27:48;6.10;;;1.45;;
50337;SDS011;46221;51.178;5.900;2023-09-19T04:30:15;4.40;;;1.45;;
50337;SDS011;46221;51.178;5.900;2023-09-19T04:32:43;6.25;;;1.73;;
50337;SDS011;46221;51.178;5.900;2023-09-19T04:35:10;5.97;;;1.50;;
50337;SDS011;46221;51.178;5.900;2023-09-19T04:37:39;5.43;;;1.95;;
50337;SDS011;46221;51.178;5.900;2023-09-19T04:40:08;5.18;;;1.50;;
50337;SDS011;46221;51.178;5.900;2023-09-19T04:42:44;5.40;;;1.70;;
50337;SDS011;46221;51.178;5.900;2023-09-19T04:45:12;4.45;;;1.20;;
50337;SDS011;46221;51.178;5.900;2023-09-19T04:47:38;4.78;;;1.35;;
50337;SDS011;46221;51.178;5.900;2023-09-19T04:50:06;4.05;;;1.40;;
50337;SDS011;46221;51.178;5.900;2023-09-19T04:52:33;5.25;;;1.52;;
50337;SDS011;46221;51.178;5.900;2023-09-19T04:54:59;5.03;;;1.88;;
50337;SDS011;46221;51.178;5.900;2023-09-19T04:57:26;4.65;;;1.40;;
50337;SDS011;46221;51.178;5.900;2023-09-19T04:59:52;4.15;;;1.48;;
50337;SDS011;46221;51.178;5.900;2023-09-19T05:02:19;5.22;;;1.65;;
50337;SDS011;46221;51.178;5.900;2023-09-19T05:04:46;4.30;;;1.40;;
50337;SDS011;46221;51.178;5.900;2023-09-19T05:07:12;5.13;;;1.45;;
50337;SDS011;46221;51.178;5.900;2023-09-19T05:09:38;5.35;;;1.70;;
50337;SDS011;46221;51.178;5.900;2023-09-19T05:12:05;4.22;;;1.50;;
50337;SDS011;46221;51.178;5.900;2023-09-19T05:14:31;4.68;;;1.70;;
50337;SDS011;46221;51.178;5.900;2023-09-19T05:16:58;4.30;;;1.80;;
50337;SDS011;46221;51.178;5.900;2023-09-19T05:19:25;4.80;;;1.80;;
50337;SDS011;46221;51.178;5.900;2023-09-19T05:21:52;5.15;;;1.85;;
50337;SDS011;46221;51.178;5.900;2023-09-19T05:24:18;6.50;;;1.58;;
50337;SDS011;46221;51.178;5.900;2023-09-19T05:26:44;4.95;;;1.70;;
50337;SDS011;46221;51.178;5.900;2023-09-19T05:29:11;6.35;;;1.75;;
50337;SDS011;46221;51.178;5.900;2023-09-19T05:31:39;5.93;;;1.85;;
50337;SDS011;46221;51.178;5.900;2023-09-19T05:34:07;3.67;;;1.40;;
50337;SDS011;46221;51.178;5.900;2023-09-19T05:36:33;5.30;;;1.33;;
50337;SDS011;46221;51.178;5.900;2023-09-19T05:39:00;5.35;;;1.60;;
50337;SDS011;46221;51.178;5.900;2023-09-19T05:41:26;6.22;;;1.70;;
50337;SDS011;46221;51.178;5.900;2023-09-19T05:43:53;5.95;;;1.60;;
50337;SDS011;46221;51.178;5.900;2023-09-19T05:46:20;6.03;;;1.65;;
50337;SDS011;46221;51.178;5.900;2023-09-19T05:48:47;6.28;;;1.70;;
50337;SDS011;46221;51.178;5.900;2023-09-19T05:51:16;5.75;;;1.67;;
50337;SDS011;46221;51.178;5.900;2023-09-19T05:53:44;6.38;;;1.98;;
50337;SDS011;46221;51.178;5.900;2023-09-19T05:56:10;5.30;;;1.50;;
50337;SDS011;46221;51.178;5.900;2023-09-19T05:58:37;6.07;;;1.10;;
50337;SDS011;46221;51.178;5.900;2023-09-19T06:01:12;5.57;;;2.00;;
50337;SDS011;46221;51.178;5.900;2023-09-19T06:03:39;4.63;;;1.63;;
50337;SDS011;46221;51.178;5.900;2023-09-19T06:06:06;5.50;;;1.30;;
50337;SDS011;46221;51.178;5.900;2023-09-19T06:08:32;5.47;;;1.73;;
50337;SDS011;46221;51.178;5.900;2023-09-19T06:10:59;3.90;;;1.65;;
50337;SDS011;46221;51.178;5.900;2023-09-19T06:13:29;4.50;;;1.40;;
50337;SDS011;46221;51.178;5.900;2023-09-19T06:15:55;4.25;;;1.98;;
50337;SDS011;46221;51.178;5.900;2023-09-19T06:18:26;6.38;;;1.75;;
50337;SDS011;46221;51.178;5.900;2023-09-19T06:20:53;4.80;;;1.73;;
50337;SDS011;46221;51.178;5.900;2023-09-19T06:23:20;7.55;;;1.80;;
50337;SDS011;46221;51.178;5.900;2023-09-19T06:25:47;4.00;;;1.33;;
50337;SDS011;46221;51.178;5.900;2023-09-19T06:28:14;4.68;;;1.17;;
50337;SDS011;46221;51.178;5.900;2023-09-19T06:30:44;4.85;;;1.40;;
50337;SDS011;46221;51.178;5.900;2023-09-19T06:33:10;5.78;;;1.50;;
50337;SDS011;46221;51.178;5.900;2023-09-19T06:35:42;6.28;;;1.60;;
50337;SDS011;46221;51.178;5.900;2023-09-19T06:38:10;5.55;;;1.98;;
50337;SDS011;46221;51.178;5.900;2023-09-19T06:40:39;9.75;;;2.25;;
50337;SDS011;46221;51.178;5.900;2023-09-19T06:43:09;10.23;;;2.35;;
50337;SDS011;46221;51.178;5.900;2023-09-19T06:45:36;9.20;;;2.42;;
50337;SDS011;46221;51.178;5.900;2023-09-19T06:48:02;7.45;;;2.30;;
50337;SDS011;46221;51.178;5.900;2023-09-19T06:50:29;8.93;;;2.25;;
50337;SDS011;46221;51.178;5.900;2023-09-19T06:52:59;9.80;;;2.35;;
50337;SDS011;46221;51.178;5.900;2023-09-19T06:55:26;7.75;;;1.98;;
50337;SDS011;46221;51.178;5.900;2023-09-19T06:57:54;7.97;;;2.08;;
50337;SDS011;46221;51.178;5.900;2023-09-19T07:00:21;7.68;;;2.85;;
50337;SDS011;46221;51.178;5.900;2023-09-19T07:03:00;11.25;;;2.20;;
50337;SDS011;46221;51.178;5.900;2023-09-19T07:05:28;11.05;;;2.55;;
50337;SDS011;46221;51.178;5.900;2023-09-19T07:07:54;7.20;;;2.00;;
50337;SDS011;46221;51.178;5.900;2023-09-19T07:10:22;7.60;;;1.90;;
50337;SDS011;46221;51.178;5.900;2023-09-19T07:12:56;9.43;;;2.85;;
50337;SDS011;46221;51.178;5.900;2023-09-19T07:15:24;8.68;;;1.83;;
50337;SDS011;46221;51.178;5.900;2023-09-19T07:17:52;8.27;;;1.90;;
50337;SDS011;46221;51.178;5.900;2023-09-19T07:20:20;9.70;;;2.17;;
50337;SDS011;46221;51.178;5.900;2023-09-19T07:22:46;9.88;;;2.15;;
50337;SDS011;46221;51.178;5.900;2023-09-19T07:25:14;8.63;;;2.55;;
50337;SDS011;46221;51.178;5.900;2023-09-19T07:27:41;8.50;;;2.10;;
50337;SDS011;46221;51.178;5.900;2023-09-19T07:30:08;8.10;;;1.80;;
50337;SDS011;46221;51.178;5.900;2023-09-19T07:32:35;8.35;;;2.20;;
50337;SDS011;46221;51.178;5.900;2023-09-19T07:35:04;6.80;;;1.85;;
50337;SDS011;46221;51.178;5.900;2023-09-19T07:37:34;7.95;;;1.80;;
50337;SDS011;46221;51.178;5.900;2023-09-19T07:40:00;9.85;;;2.90;;
50337;SDS011;46221;51.178;5.900;2023-09-19T07:42:27;7.63;;;2.45;;
50337;SDS011;46221;51.178;5.900;2023-09-19T07:44:53;9.63;;;2.22;;
50337;SDS011;46221;51.178;5.900;2023-09-19T07:47:20;9.75;;;2.25;;
50337;SDS011;46221;51.178;5.900;2023-09-19T07:49:47;10.18;;;2.80;;
50337;SDS011;46221;51.178;5.900;2023-09-19T07:52:14;7.25;;;2.00;;
50337;SDS011;46221;51.178;5.900;2023-09-19T07:54:41;6.65;;;1.92;;
50337;SDS011;46221;51.178;5.900;2023-09-19T07:57:10;8.30;;;2.13;;
50337;SDS011;46221;51.178;5.900;2023-09-19T07:59:37;7.50;;;2.08;;
50337;SDS011;46221;51.178;5.900;2023-09-19T08:02:05;5.65;;;1.70;;
50337;SDS011;46221;51.178;5.900;2023-09-19T08:04:31;7.47;;;1.80;;
50337;SDS011;46221;51.178;5.900;2023-09-19T08:07:00;9.35;;;1.95;;
50337;SDS011;46221;51.178;5.900;2023-09-19T08:09:29;7.20;;;2.20;;
50337;SDS011;46221;51.178;5.900;2023-09-19T08:11:59;7.40;;;2.03;;
50337;SDS011;46221;51.178;5.900;2023-09-19T08:14:28;8.73;;;2.13;;
50337;SDS011;46221;51.178;5.900;2023-09-19T08:16:58;9.00;;;2.50;;
50337;SDS011;46221;51.178;5.900;2023-09-19T08:19:25;7.53;;;1.95;;
50337;SDS011;46221;51.178;5.900;2023-09-19T08:21:57;9.93;;;2.28;;
50337;SDS011;46221;51.178;5.900;2023-09-19T08:24:25;10.00;;;2.22;;
50337;SDS011;46221;51.178;5.900;2023-09-19T08:26:54;9.40;;;2.60;;
50337;SDS011;46221;51.178;5.900;2023-09-19T08:29:22;8.98;;;2.53;;
50337;SDS011;46221;51.178;5.900;2023-09-19T08:31:56;8.32;;;2.65;;
50337;SDS011;46221;51.178;5.900;2023-09-19T08:34:23;7.65;;;1.80;;
50337;SDS011;46221;51.178;5.900;2023-09-19T08:36:54;6.07;;;1.77;;
50337;SDS011;46221;51.178;5.900;2023-09-19T08:39:24;8.25;;;2.20;;
50337;SDS011;46221;51.178;5.900;2023-09-19T08:41:57;8.40;;;2.78;;
50337;SDS011;46221;51.178;5.900;2023-09-19T08:44:23;6.25;;;2.00;;
50337;SDS011;46221;51.178;5.900;2023-09-19T08:46:52;8.10;;;2.42;;
50337;SDS011;46221;51.178;5.900;2023-09-19T08:49:33;7.07;;;2.03;;
50337;SDS011;46221;51.178;5.900;2023-09-19T08:55:04;6.85;;;2.05;;
50337;SDS011;46221;51.178;5.900;2023-09-19T08:57:36;6.88;;;2.25;;
50337;SDS011;46221;51.178;5.900;2023-09-19T09:00:05;8.45;;;2.03;;
50337;SDS011;46221;51.178;5.900;2023-09-19T09:02:37;8.07;;;2.00;;
50337;SDS011;46221;51.178;5.900;2023-09-19T09:05:04;6.28;;;2.00;;
50337;SDS011;46221;51.178;5.900;2023-09-19T09:07:32;9.05;;;2.13;;
50337;SDS011;46221;51.178;5.900;2023-09-19T09:10:02;8.95;;;2.47;;
50337;SDS011;46221;51.178;5.900;2023-09-19T09:12:29;6.43;;;1.55;;
50337;SDS011;46221;51.178;5.900;2023-09-19T09:14:55;9.88;;;1.92;;
50337;SDS011;46221;51.178;5.900;2023-09-19T09:17:26;8.20;;;2.00;;
50337;SDS011;46221;51.178;5.900;2023-09-19T09:19:53;8.20;;;1.92;;
50337;SDS011;46221;51.178;5.900;2023-09-19T09:22:19;7.22;;;1.50;;
50337;SDS011;46221;51.178;5.900;2023-09-19T09:24:54;10.10;;;1.95;;
50337;SDS011;46221;51.178;5.900;2023-09-19T09:27:20;6.32;;;1.95;;
50337;SDS011;46221;51.178;5.900;2023-09-19T09:29:51;6.95;;;2.00;;
50337;SDS011;46221;51.178;5.900;2023-09-19T09:34:48;7.38;;;2.00;;
50337;SDS011;46221;51.178;5.900;2023-09-19T09:37:16;5.75;;;1.98;;
50337;SDS011;46221;51.178;5.900;2023-09-19T09:39:50;8.95;;;2.42;;
50337;SDS011;46221;51.178;5.900;2023-09-19T09:42:46;7.03;;;1.98;;
50337;SDS011;46221;51.178;5.900;2023-09-19T09:45:18;7.57;;;2.03;;
50337;SDS011;46221;51.178;5.900;2023-09-19T09:47:55;6.88;;;2.30;;
50337;SDS011;46221;51.178;5.900;2023-09-19T09:50:25;6.47;;;1.95;;
50337;SDS011;46221;51.178;5.900;2023-09-19T09:52:56;7.53;;;2.08;;
50337;SDS011;46221;51.178;5.900;2023-09-19T09:55:56;7.90;;;1.85;;
50337;SDS011;46221;51.178;5.900;2023-09-19T09:58:19;9.45;;;2.10;;
50337;SDS011;46221;51.178;5.900;2023-09-19T10:00:53;9.10;;;2.45;;
50337;SDS011;46221;51.178;5.900;2023-09-19T10:03:31;6.95;;;1.75;;
50337;SDS011;46221;51.178;5.900;2023-09-19T10:05:58;5.95;;;2.00;;
50337;SDS011;46221;51.178;5.900;2023-09-19T10:08:24;8.18;;;2.20;;
50337;SDS011;46221;51.178;5.900;2023-09-19T10:10:52;7.22;;;2.08;;
50337;SDS011;46221;51.178;5.900;2023-09-19T10:13:30;6.40;;;1.90;;
50337;SDS011;46221;51.178;5.900;2023-09-19T10:15:57;9.18;;;2.50;;
50337;SDS011;46221;51.178;5.900;2023-09-19T10:18:26;6.57;;;1.90;;
50337;SDS011;46221;51.178;5.900;2023-09-19T10:20:54;6.85;;;1.70;;
50337;SDS011;46221;51.178;5.900;2023-09-19T10:23:21;8.70;;;2.40;;
50337;SDS011;46221;51.178;5.900;2023-09-19T10:25:49;8.02;;;2.00;;
50337;SDS011;46221;51.178;5.900;2023-09-19T10:28:17;6.18;;;2.13;;
50337;SDS011;46221;51.178;5.900;2023-09-19T10:30:48;9.30;;;2.38;;
50337;SDS011;46221;51.178;5.900;2023-09-19T10:33:16;8.27;;;2.10;;
50337;SDS011;46221;51.178;5.900;2023-09-19T10:35:44;7.63;;;2.17;;
50337;SDS011;46221;51.178;5.900;2023-09-19T10:38:11;8.00;;;2.00;;
50337;SDS011;46221;51.178;5.900;2023-09-19T10:40:38;7.28;;;1.90;;
50337;SDS011;46221;51.178;5.900;2023-09-19T10:43:13;8.75;;;2.45;;
50337;SDS011;46221;51.178;5.900;2023-09-19T10:45:44;6.18;;;2.03;;
50337;SDS011;46221;51.178;5.900;2023-09-19T10:48:10;5.55;;;1.85;;
50337;SDS011;46221;51.178;5.900;2023-09-19T10:50:44;7.78;;;2.13;;
50337;SDS011;46221;51.178;5.900;2023-09-19T10:53:11;7.82;;;2.05;;
50337;SDS011;46221;51.178;5.900;2023-09-19T10:55:38;7.32;;;2.17;;
50337;SDS011;46221;51.178;5.900;2023-09-19T10:58:05;5.60;;;2.25;;
50337;SDS011;46221;51.178;5.900;2023-09-19T11:00:53;4.93;;;1.67;;
50337;SDS011;46221;51.178;5.900;2023-09-19T11:03:20;5.30;;;1.90;;
50337;SDS011;46221;51.178;5.900;2023-09-19T11:08:22;7.22;;;2.20;;
50337;SDS011;46221;51.178;5.900;2023-09-19T11:10:50;8.00;;;2.50;;
50337;SDS011;46221;51.178;5.900;2023-09-19T11:13:27;8.18;;;2.55;;
50337;SDS011;46221;51.178;5.900;2023-09-19T11:24:27;4.97;;;1.55;;
50337;SDS011;46221;51.178;5.900;2023-09-19T11:26:51;7.88;;;2.35;;
50337;SDS011;46221;51.178;5.900;2023-09-19T11:29:28;6.88;;;2.33;;
50337;SDS011;46221;51.178;5.900;2023-09-19T11:31:57;6.05;;;1.88;;
50337;SDS011;46221;51.178;5.900;2023-09-19T11:37:02;6.82;;;2.00;;
50337;SDS011;46221;51.178;5.900;2023-09-19T11:39:30;6.60;;;2.00;;
50337;SDS011;46221;51.178;5.900;2023-09-19T11:41:57;5.25;;;1.83;;
50337;SDS011;46221;51.178;5.900;2023-09-19T11:46:53;6.18;;;2.47;;
50337;SDS011;46221;51.178;5.900;2023-09-19T11:49:30;6.55;;;2.30;;
50337;SDS011;46221;51.178;5.900;2023-09-19T11:51:58;5.95;;;1.80;;
50337;SDS011;46221;51.178;5.900;2023-09-19T11:54:31;7.97;;;1.92;;
50337;SDS011;46221;51.178;5.900;2023-09-19T11:56:58;7.00;;;2.00;;
50337;SDS011;46221;51.178;5.900;2023-09-19T11:59:31;6.05;;;1.80;;
50337;SDS011;46221;51.178;5.900;2023-09-19T12:02:01;5.53;;;1.70;;
50337;SDS011;46221;51.178;5.900;2023-09-19T12:04:34;5.60;;;1.25;;
50337;SDS011;46221;51.178;5.900;2023-09-19T12:09:31;7.55;;;1.80;;
50337;SDS011;46221;51.178;5.900;2023-09-19T12:11:58;6.53;;;1.70;;
50337;SDS011;46221;51.178;5.900;2023-09-19T12:14:25;7.88;;;1.83;;
50337;SDS011;46221;51.178;5.900;2023-09-19T12:16:55;5.82;;;1.70;;
50337;SDS011;46221;51.178;5.900;2023-09-19T12:19:22;5.60;;;1.65;;
50337;SDS011;46221;51.178;5.900;2023-09-19T12:21:56;3.85;;;1.60;;
50337;SDS011;46221;51.178;5.900;2023-09-19T12:24:25;6.15;;;1.55;;
50337;SDS011;46221;51.178;5.900;2023-09-19T12:26:52;5.30;;;1.20;;
50337;SDS011;46221;51.178;5.900;2023-09-19T12:29:19;6.10;;;1.30;;
50337;SDS011;46221;51.178;5.900;2023-09-19T12:31:54;6.13;;;1.23;;
50337;SDS011;46221;51.178;5.900;2023-09-19T12:34:27;4.45;;;1.40;;
50337;SDS011;46221;51.178;5.900;2023-09-19T12:37:03;4.80;;;1.35;;
50337;SDS011;46221;51.178;5.900;2023-09-19T12:39:32;3.90;;;1.30;;
50337;SDS011;46221;51.178;5.900;2023-09-19T12:41:58;7.68;;;1.48;;
50337;SDS011;46221;51.178;5.900;2023-09-19T12:44:25;4.68;;;1.52;;
50337;SDS011;46221;51.178;5.900;2023-09-19T12:46:51;4.38;;;1.35;;
50337;SDS011;46221;51.178;5.900;2023-09-19T12:49:19;4.55;;;1.30;;
50337;SDS011;46221;51.178;5.900;2023-09-19T12:51:46;5.78;;;1.42;;
50337;SDS011;46221;51.178;5.900;2023-09-19T12:54:13;5.15;;;1.48;;
50337;SDS011;46221;51.178;5.900;2023-09-19T12:56:43;5.18;;;1.38;;
50337;SDS011;46221;51.178;5.900;2023-09-19T12:59:15;4.85;;;1.15;;
50337;SDS011;46221;51.178;5.900;2023-09-19T13:01:42;5.22;;;1.25;;
50337;SDS011;46221;51.178;5.900;2023-09-19T13:04:20;4.70;;;1.13;;
50337;SDS011;46221;51.178;5.900;2023-09-19T13:06:55;5.68;;;1.13;;
50337;SDS011;46221;51.178;5.900;2023-09-19T13:09:27;4.00;;;1.00;;
50337;SDS011;46221;51.178;5.900;2023-09-19T13:12:05;6.38;;;1.30;;
50337;SDS011;46221;51.178;5.900;2023-09-19T13:14:44;4.30;;;1.00;;
50337;SDS011;46221;51.178;5.900;2023-09-19T13:17:13;5.32;;;1.08;;
50337;SDS011;46221;51.178;5.900;2023-09-19T13:19:47;3.80;;;1.10;;
50337;SDS011;46221;51.178;5.900;2023-09-19T13:22:40;2.80;;;0.80;;
50337;SDS011;46221;51.178;5.900;2023-09-19T13:25:10;4.35;;;1.00;;
50337;SDS011;46221;51.178;5.900;2023-09-19T13:27:41;3.45;;;0.80;;
50337;SDS011;46221;51.178;5.900;2023-09-19T13:30:08;4.88;;;1.27;;
50337;SDS011;46221;51.178;5.900;2023-09-19T13:32:35;3.58;;;0.90;;
50337;SDS011;46221;51.178;5.900;2023-09-19T13:35:02;5.35;;;1.00;;
50337;SDS011;46221;51.178;5.900;2023-09-19T13:37:28;2.95;;;0.73;;
50337;SDS011;46221;51.178;5.900;2023-09-19T13:39:55;2.90;;;0.98;;
50337;SDS011;46221;51.178;5.900;2023-09-19T13:42:21;2.95;;;0.80;;
50337;SDS011;46221;51.178;5.900;2023-09-19T13:44:48;3.65;;;0.95;;
50337;SDS011;46221;51.178;5.900;2023-09-19T13:47:14;3.33;;;1.08;;
50337;SDS011;46221;51.178;5.900;2023-09-19T13:49:41;3.00;;;0.65;;
50337;SDS011;46221;51.178;5.900;2023-09-19T13:52:08;2.22;;;0.60;;
50337;SDS011;46221;51.178;5.900;2023-09-19T13:54:38;2.95;;;0.80;;
50337;SDS011;46221;51.178;5.900;2023-09-19T13:57:04;3.10;;;0.70;;
50337;SDS011;46221;51.178;5.900;2023-09-19T13:59:33;2.88;;;0.80;;
50337;SDS011;46221;51.178;5.900;2023-09-19T14:02:00;3.67;;;0.85;;
50337;SDS011;46221;51.178;5.900;2023-09-19T14:04:26;3.03;;;0.85;;
50337;SDS011;46221;51.178;5.900;2023-09-19T14:06:55;2.78;;;0.70;;
50337;SDS011;46221;51.178;5.900;2023-09-19T14:09:21;3.78;;;0.90;;
50337;SDS011;46221;51.178;5.900;2023-09-19T14:11:48;3.50;;;1.02;;
50337;SDS011;46221;51.178;5.900;2023-09-19T14:14:15;2.92;;;0.80;;
50337;SDS011;46221;51.178;5.900;2023-09-19T14:16:41;2.70;;;0.70;;
50337;SDS011;46221;51.178;5.900;2023-09-19T14:19:08;4.32;;;0.93;;
50337;SDS011;46221;51.178;5.900;2023-09-19T14:21:34;2.63;;;0.80;;
50337;SDS011;46221;51.178;5.900;2023-09-19T14:24:02;3.28;;;0.93;;
50337;SDS011;46221;51.178;5.900;2023-09-19T14:26:29;1.65;;;0.63;;
50337;SDS011;46221;51.178;5.900;2023-09-19T14:28:55;1.83;;;0.70;;
50337;SDS011;46221;51.178;5.900;2023-09-19T14:31:22;3.63;;;0.70;;
50337;SDS011;46221;51.178;5.900;2023-09-19T14:33:53;3.30;;;0.82;;
50337;SDS011;46221;51.178;5.900;2023-09-19T14:36:19;1.92;;;0.63;;
50337;SDS011;46221;51.178;5.900;2023-09-19T14:38:46;3.05;;;0.70;;
50337;SDS011;46221;51.178;5.900;2023-09-19T14:41:13;2.00;;;0.70;;
50337;SDS011;46221;51.178;5.900;2023-09-19T14:43:40;3.00;;;0.88;;
50337;SDS011;46221;51.178;5.900;2023-09-19T14:46:06;1.38;;;0.52;;
50337;SDS011;46221;51.178;5.900;2023-09-19T14:48:39;1.65;;;0.47;;
50337;SDS011;46221;51.178;5.900;2023-09-19T14:51:06;5.82;;;0.82;;
50337;SDS011;46221;51.178;5.900;2023-09-19T14:53:35;3.88;;;0.88;;
50337;SDS011;46221;51.178;5.900;2023-09-19T14:56:04;3.65;;;0.80;;
50337;SDS011;46221;51.178;5.900;2023-09-19T14:58:31;3.45;;;0.90;;
50337;SDS011;46221;51.178;5.900;2023-09-19T15:01:07;3.42;;;0.60;;
50337;SDS011;46221;51.178;5.900;2023-09-19T15:03:34;2.53;;;0.80;;
50337;SDS011;46221;51.178;5.900;2023-09-19T15:06:03;1.50;;;0.60;;
50337;SDS011;46221;51.178;5.900;2023-09-19T15:08:31;2.03;;;0.43;;
50337;SDS011;46221;51.178;5.900;2023-09-19T15:10:57;1.55;;;0.50;;
50337;SDS011;46221;51.178;5.900;2023-09-19T15:13:26;3.00;;;0.77;;
50337;SDS011;46221;51.178;5.900;2023-09-19T15:16:05;3.60;;;0.88;;
50337;SDS011;46221;51.178;5.900;2023-09-19T15:18:35;1.83;;;0.70;;
50337;SDS011;46221;51.178;5.900;2023-09-19T15:21:04;2.20;;;0.70;;
50337;SDS011;46221;51.178;5.900;2023-09-19T15:23:33;1.50;;;0.70;;
50337;SDS011;46221;51.178;5.900;2023-09-19T15:26:00;2.35;;;0.70;;